createdAt,value
2018-12-09T06:40:06.339Z,3
2018-12-09T06:46:36.757Z,7
2018-12-09T06:48:36.914Z,10
2018-12-09T06:50:06.999Z,13
2018-12-09T06:50:37.051Z,10
2018-12-09T06:52:07.074Z,13
2018-12-09T06:52:37.148Z,17
2018-12-09T06:53:07.170Z,20
2018-12-09T06:54:07.242Z,23
2018-12-09T06:54:37.273Z,20
2018-12-09T06:55:37.328Z,23
2018-12-09T06:56:07.363Z,27
2018-12-09T06:57:07.413Z,30
2018-12-09T06:58:07.456Z,33
2018-12-09T06:59:07.549Z,37
2018-12-09T07:00:37.645Z,40
2018-12-09T07:01:07.665Z,37
2018-12-09T07:01:37.681Z,33
2018-12-09T07:02:37.777Z,43
2018-12-09T07:03:07.750Z,50
2018-12-09T07:03:37.807Z,43
2018-12-09T07:04:07.878Z,40
2018-12-09T07:04:37.866Z,47
2018-12-09T07:05:07.946Z,57
2018-12-09T07:05:37.956Z,63
2018-12-09T07:06:07.936Z,77
2018-12-09T07:06:37.998Z,83
2018-12-09T07:07:38.042Z,80
2018-12-09T07:08:38.100Z,83
2018-12-09T07:09:08.132Z,90
2018-12-09T07:09:38.157Z,100
2018-12-09T07:10:08.229Z,103
2018-12-09T07:10:38.268Z,107
2018-12-09T07:11:08.319Z,140
2018-12-09T07:11:38.330Z,170
2018-12-09T07:12:08.359Z,167
2018-12-09T07:12:38.389Z,173
2018-12-09T07:13:08.428Z,177
2018-12-09T07:13:38.457Z,183
2018-12-09T07:14:08.521Z,180
2018-12-09T07:14:38.562Z,193
2018-12-09T07:15:08.536Z,207
2018-12-09T07:15:38.599Z,213
2018-12-09T07:16:08.605Z,233
2018-12-09T07:16:38.660Z,230
2018-12-09T07:17:08.651Z,217
2018-12-09T07:17:38.736Z,203
2018-12-09T07:18:08.757Z,190
2018-12-09T07:18:38.736Z,197
2018-12-09T07:19:08.804Z,217
2018-12-09T07:19:38.869Z,220
2018-12-09T07:20:08.802Z,213
2018-12-09T07:21:08.902Z,233
2018-12-09T07:21:38.924Z,237
2018-12-09T07:22:08.920Z,250
2018-12-09T07:22:39.046Z,267
2018-12-09T07:23:09.033Z,257
2018-12-09T07:23:39.043Z,270
2018-12-09T07:24:09.091Z,293
2018-12-09T07:24:39.081Z,330
2018-12-09T07:25:09.139Z,343
2018-12-09T07:25:39.209Z,357
2018-12-09T07:26:09.191Z,367
2018-12-09T07:26:39.209Z,360
2018-12-09T07:27:09.285Z,367
2018-12-09T07:27:39.317Z,370
2018-12-09T07:28:09.345Z,387
2018-12-09T07:28:39.394Z,353
2018-12-09T07:29:09.408Z,313
2018-12-09T07:29:39.477Z,333
2018-12-09T07:30:09.463Z,323
2018-12-09T07:30:39.510Z,313
2018-12-09T07:31:09.528Z,347
2018-12-09T07:31:39.576Z,380
2018-12-09T07:32:09.529Z,377
2018-12-09T07:32:39.613Z,307
2018-12-09T07:33:09.630Z,253
2018-12-09T07:33:39.706Z,263
2018-12-09T07:34:09.751Z,247
2018-12-09T07:34:39.745Z,203
2018-12-09T07:35:09.741Z,200
2018-12-09T07:35:39.826Z,233
2018-12-09T07:36:09.836Z,313
2018-12-09T07:36:39.859Z,280
2018-12-09T07:37:09.897Z,273
2018-12-09T07:37:39.945Z,310
2018-12-09T07:38:09.958Z,357
2018-12-09T07:38:40.001Z,377
2018-12-09T07:39:10.032Z,360
2018-12-09T07:39:40.076Z,403
2018-12-09T07:40:10.073Z,407
2018-12-09T07:40:40.111Z,403
2018-12-09T07:41:10.187Z,383
2018-12-09T07:41:40.211Z,353
2018-12-09T07:42:10.237Z,380
2018-12-09T07:42:40.239Z,457
2018-12-09T07:43:10.209Z,530
2018-12-09T07:43:40.283Z,580
2018-12-09T07:44:10.314Z,617
2018-12-09T07:44:40.318Z,637
2018-12-09T07:45:10.381Z,687
2018-12-09T07:45:40.381Z,797
2018-12-09T07:46:10.487Z,923
2018-12-09T07:46:40.446Z,983
2018-12-09T07:47:10.534Z,1033
2018-12-09T07:47:40.530Z,1117
2018-12-09T07:48:10.810Z,1207
2018-12-09T07:48:40.595Z,1290
2018-12-09T07:49:10.622Z,1363
2018-12-09T07:49:40.636Z,1410
2018-12-09T07:50:10.646Z,1470
2018-12-09T07:50:40.754Z,1570
2018-12-09T07:51:10.699Z,1687
2018-12-09T07:51:40.758Z,1813
2018-12-09T07:52:10.792Z,1973
2018-12-09T07:52:40.822Z,2153
2018-12-09T07:53:10.841Z,2360
2018-12-09T07:54:10.900Z,2413
2018-12-09T07:54:40.955Z,2527
2018-12-09T07:55:41.031Z,2427
2018-12-09T07:56:11.037Z,2293
2018-12-09T07:56:41.093Z,2187
2018-12-09T07:57:11.103Z,2153
2018-12-09T07:57:41.146Z,2077
2018-12-09T07:58:11.139Z,1963
2018-12-09T07:58:41.185Z,1883
2018-12-09T07:59:11.354Z,1783
2018-12-09T07:59:41.298Z,1703
2018-12-09T08:00:11.264Z,1670
2018-12-09T08:00:41.342Z,1640
2018-12-09T08:01:11.419Z,1580
2018-12-09T08:01:41.430Z,1537
2018-12-09T08:02:41.502Z,1570
2018-12-09T08:03:11.487Z,1520
2018-12-09T08:03:41.549Z,1467
2018-12-09T08:04:11.583Z,1403
2018-12-09T08:04:41.586Z,1267
2018-12-09T08:05:11.840Z,1280
2018-12-09T08:05:41.610Z,1233
2018-12-09T08:06:11.659Z,1193
2018-12-09T08:06:41.717Z,1107
2018-12-09T08:07:11.756Z,1013
2018-12-09T08:07:41.807Z,980
2018-12-09T08:08:11.773Z,933
2018-12-09T08:08:41.875Z,923
2018-12-09T08:09:11.926Z,897
2018-12-09T08:09:41.884Z,940
2018-12-09T08:10:11.915Z,937
2018-12-09T08:10:41.948Z,887
2018-12-09T08:11:12.024Z,823
2018-12-09T08:11:41.977Z,777
2018-12-09T08:12:12.063Z,783
2018-12-09T08:12:42.075Z,793
2018-12-09T08:13:12.081Z,797
2018-12-09T08:13:42.108Z,887
2018-12-09T08:14:12.222Z,963
2018-12-09T08:14:42.168Z,1030
2018-12-09T08:15:12.245Z,967
2018-12-09T08:15:42.249Z,1057
2018-12-09T08:16:12.345Z,1227
2018-12-09T08:16:42.351Z,1267
2018-12-09T08:17:12.395Z,1280
2018-12-09T08:17:42.371Z,1457
2018-12-09T08:18:12.420Z,1660
2018-12-09T08:18:42.558Z,1873
2018-12-09T08:19:12.484Z,2113
2018-12-09T08:19:42.498Z,2210
2018-12-09T08:20:12.514Z,2293
2018-12-09T08:20:42.571Z,2120
2018-12-09T08:21:12.546Z,2023
2018-12-09T08:21:42.619Z,1910
2018-12-09T08:22:12.635Z,2007
2018-12-09T08:22:42.678Z,2003
2018-12-09T08:23:12.741Z,1850
2018-12-09T08:23:42.781Z,1690
2018-12-09T08:24:12.843Z,1730
2018-12-09T08:24:42.848Z,1623
2018-12-09T08:25:12.801Z,1650
2018-12-09T08:25:42.931Z,1660
2018-12-09T08:26:12.910Z,1617
2018-12-09T08:26:42.962Z,1647
2018-12-09T08:27:12.991Z,1717
2018-12-09T08:27:42.984Z,1943
2018-12-09T08:28:13.000Z,2133
2018-12-09T08:28:43.087Z,2273
2018-12-09T08:29:13.089Z,2370
2018-12-09T08:29:43.115Z,2627
2018-12-09T08:30:13.194Z,2817
2018-12-09T08:30:43.177Z,2887
2018-12-09T08:31:13.224Z,3060
2018-12-09T08:31:43.270Z,2997
2018-12-09T08:32:13.266Z,3370
2018-12-09T08:32:43.339Z,3720
2018-12-09T08:33:13.355Z,4137
2018-12-09T08:33:43.357Z,4450
2018-12-09T08:34:13.426Z,4510
2018-12-09T08:34:43.428Z,4657
2018-12-09T08:35:15.269Z,4777
2018-12-09T08:35:43.489Z,4280
2018-12-09T08:36:13.521Z,4397
2018-12-09T08:36:43.528Z,4413
2018-12-09T08:37:13.592Z,4420
2018-12-09T08:37:43.651Z,4897
2018-12-09T08:38:13.611Z,5620
2018-12-09T08:38:43.668Z,6020
2018-12-09T08:39:13.726Z,6300
2018-12-09T08:40:13.738Z,6393
2018-12-09T08:40:43.780Z,6150
2018-12-09T08:41:13.836Z,5813
2018-12-09T08:41:43.831Z,6577
2018-12-09T08:42:13.845Z,6040
2018-12-09T08:42:43.879Z,4987
2018-12-09T08:43:13.944Z,4437
2018-12-09T08:43:44.081Z,3773
2018-12-09T08:44:14.023Z,2783
2018-12-09T08:44:44.008Z,2537
2018-12-09T08:45:14.042Z,2807
2018-12-09T08:45:44.082Z,2920
2018-12-09T08:46:14.173Z,3217
2018-12-09T08:46:44.180Z,3373
2018-12-09T08:47:14.176Z,3803
2018-12-09T08:47:44.186Z,3660
2018-12-09T08:48:14.253Z,3270
2018-12-09T08:48:44.321Z,3413
2018-12-09T08:49:14.336Z,3703
2018-12-09T08:49:44.384Z,3447
2018-12-09T08:50:14.382Z,3833
2018-12-09T08:50:44.412Z,3497
2018-12-09T08:51:14.449Z,3373
2018-12-09T08:51:44.462Z,3670
2018-12-09T08:52:14.497Z,3850
2018-12-09T08:52:44.566Z,4033
2018-12-09T08:53:14.513Z,4223
2018-12-09T08:53:44.594Z,4303
2018-12-09T08:54:14.716Z,4277
2018-12-09T08:54:44.679Z,4290
2018-12-09T08:55:14.679Z,4420
2018-12-09T08:55:44.764Z,4717
2018-12-09T08:56:14.774Z,4967
2018-12-09T08:56:45.796Z,5000
2018-12-09T08:57:14.803Z,4757
2018-12-09T08:57:44.800Z,4367
2018-12-09T08:58:14.855Z,4043
2018-12-09T08:58:44.950Z,3780
2018-12-09T08:59:14.911Z,3523
2018-12-09T08:59:44.984Z,3363
2018-12-09T09:00:14.989Z,3200
2018-12-09T09:00:45.013Z,3163
2018-12-09T09:01:15.034Z,3197
2018-12-09T09:01:45.098Z,3223
2018-12-09T09:02:15.109Z,3267
2018-12-09T09:02:45.169Z,3397
2018-12-09T09:03:15.171Z,3357
2018-12-09T09:03:45.234Z,3183
2018-12-09T09:04:15.307Z,3327
2018-12-09T09:04:45.291Z,3213
2018-12-09T09:05:15.294Z,3250
2018-12-09T09:08:45.583Z,2770
2018-12-09T09:09:15.641Z,2850
2018-12-09T09:09:45.548Z,2827
2018-12-09T09:10:15.619Z,2723
2018-12-09T09:10:45.664Z,2627
2018-12-09T09:11:15.732Z,2493
2018-12-09T09:11:45.713Z,2407
2018-12-09T09:12:15.729Z,2417
2018-12-09T09:12:45.799Z,2530
2018-12-09T09:13:15.791Z,2583
2018-12-09T09:13:45.843Z,2560
2018-12-09T09:14:15.918Z,2787
2018-12-09T09:14:45.904Z,3090
2018-12-09T09:15:15.918Z,3190
2018-12-09T09:15:45.990Z,3333
2018-12-09T09:16:16.071Z,3387
2018-12-09T09:16:46.024Z,3343
2018-12-09T09:17:16.057Z,3307
2018-12-09T09:17:46.093Z,3703
2018-12-09T09:18:16.104Z,3707
2018-12-09T09:18:46.156Z,3530
2018-12-09T09:19:16.130Z,3230
2018-12-09T09:19:46.253Z,2687
2018-12-09T09:20:16.221Z,2373
2018-12-09T09:20:46.284Z,2193
2018-12-09T09:21:16.297Z,2050
2018-12-09T09:21:46.367Z,1897
2018-12-09T09:22:16.299Z,1927
2018-12-09T09:22:46.404Z,2083
2018-12-09T09:23:16.410Z,2357
2018-12-09T09:23:46.435Z,2793
2018-12-09T09:24:16.477Z,3173
2018-12-09T09:24:46.533Z,3177
2018-12-09T09:25:16.556Z,3603
2018-12-09T09:25:46.561Z,3943
2018-12-09T09:26:16.571Z,4077
2018-12-09T09:26:46.594Z,4263
2018-12-09T09:27:16.606Z,4767
2018-12-09T09:27:46.682Z,5263
2018-12-09T09:28:16.663Z,5780
2018-12-09T09:28:46.708Z,6007
2018-12-09T09:29:16.738Z,6203
2018-12-09T09:29:46.784Z,6180
2018-12-09T09:30:16.804Z,6773
2018-12-09T09:30:46.839Z,6863
2018-12-09T09:31:16.889Z,7543
2018-12-09T09:31:46.898Z,8543
2018-12-09T09:32:16.912Z,9253
2018-12-09T09:32:46.963Z,9647
2018-12-09T09:33:16.983Z,10317
2018-12-09T09:33:47.019Z,11107
2018-12-09T09:34:17.083Z,12047
2018-12-09T09:34:47.128Z,12973
2018-12-09T09:35:17.141Z,13220
2018-12-09T09:35:47.198Z,12807
2018-12-09T09:36:17.205Z,11883
2018-12-09T09:36:47.197Z,10520
2018-12-09T09:37:17.259Z,9417
2018-12-09T09:37:47.296Z,8623
2018-12-09T09:38:17.293Z,7770
2018-12-09T09:38:47.361Z,6880
2018-12-09T09:39:17.392Z,5907
2018-12-09T09:39:47.501Z,4710
2018-12-09T09:40:17.457Z,3647
2018-12-09T09:40:47.577Z,2853
2018-12-09T09:41:17.646Z,2327
2018-12-09T09:41:47.548Z,2013
2018-12-09T09:42:17.564Z,1877
2018-12-09T09:42:47.610Z,1827
2018-12-09T09:43:17.613Z,1813
2018-12-09T09:43:47.678Z,1753
2018-12-09T09:44:17.681Z,1710
2018-12-09T09:44:47.756Z,1677
2018-12-09T09:45:17.710Z,1647
2018-12-09T09:45:47.798Z,1577
2018-12-09T09:46:17.799Z,1523
2018-12-09T09:46:47.893Z,1493
2018-12-09T09:47:17.833Z,1437
2018-12-09T09:47:47.881Z,1453
2018-12-09T09:48:17.966Z,1480
2018-12-09T09:48:47.980Z,1470
2018-12-09T09:49:17.961Z,1367
2018-12-09T09:49:48.097Z,1240
2018-12-09T09:50:18.054Z,1410
2018-12-09T09:50:48.103Z,1483
2018-12-09T09:51:18.111Z,1523
2018-12-09T09:51:48.158Z,1530
2018-12-09T09:52:18.177Z,1570
2018-12-09T09:52:48.223Z,1613
2018-12-09T09:53:18.231Z,1753
2018-12-09T09:53:48.283Z,1927
2018-12-09T09:54:18.295Z,2113
2018-12-09T09:54:48.354Z,2323
2018-12-09T09:55:18.387Z,2507
2018-12-09T09:55:48.407Z,2663
2018-12-09T09:56:18.408Z,2653
2018-12-09T09:56:48.491Z,2927
2018-12-09T09:57:18.473Z,3313
2018-12-09T09:57:48.505Z,3787
2018-12-09T09:58:18.579Z,4173
2018-12-09T09:58:49.607Z,4353
2018-12-09T09:59:18.598Z,4410
2018-12-09T09:59:48.657Z,4290
2018-12-09T10:00:18.682Z,4513
2018-12-09T10:00:48.720Z,4707
2018-12-09T10:01:18.777Z,5113
2018-12-09T10:01:48.781Z,5613
2018-12-09T10:02:18.853Z,5973
2018-12-09T10:02:48.852Z,6400
2018-12-09T10:03:25.652Z,7013
2018-12-09T10:03:48.894Z,7443
2018-12-09T10:04:18.924Z,7583
2018-12-09T10:04:48.964Z,7597
2018-12-09T10:05:19.086Z,7533
2018-12-09T10:05:49.022Z,7160
2018-12-09T10:06:19.040Z,6460
2018-12-09T10:06:49.089Z,6180
2018-12-09T10:07:19.064Z,6113
2018-12-09T10:07:49.144Z,5930
2018-12-09T10:08:19.153Z,6053
2018-12-09T10:08:49.211Z,6377
2018-12-09T10:09:19.234Z,6750
2018-12-09T10:09:49.265Z,7150
2018-12-09T10:10:19.340Z,7483
2018-12-09T10:10:49.327Z,7747
2018-12-09T10:11:19.334Z,8063
2018-12-09T10:11:49.425Z,8320
2018-12-09T10:12:19.478Z,8553
2018-12-09T10:12:49.467Z,8840
2018-12-09T10:13:19.492Z,9310
2018-12-09T10:13:49.536Z,10090
2018-12-09T10:14:19.555Z,11017
2018-12-09T10:14:49.570Z,11870
2018-12-09T10:15:19.638Z,12670
2018-12-09T10:15:49.630Z,13310
2018-12-09T10:16:19.636Z,13753
2018-12-09T10:16:49.700Z,14240
2018-12-09T10:17:19.674Z,14773
2018-12-09T10:17:49.751Z,15117
2018-12-09T10:18:19.773Z,15693
2018-12-09T10:18:49.858Z,17120
2018-12-09T10:19:19.797Z,18277
2018-12-09T10:19:49.854Z,17620
2018-12-09T10:20:19.890Z,15917
2018-12-09T10:20:49.915Z,14743
2018-12-09T10:21:19.923Z,14620
2018-12-09T10:21:49.975Z,14093
2018-12-09T10:22:20.051Z,12777
2018-12-09T10:22:50.030Z,11450
2018-12-09T10:23:20.444Z,10800
2018-12-09T10:23:50.119Z,10127
2018-12-09T10:24:20.116Z,9957
2018-12-09T10:24:50.211Z,10083
2018-12-09T10:25:20.251Z,10177
2018-12-09T10:25:50.309Z,10640
2018-12-09T10:26:20.358Z,10947
2018-12-09T10:26:50.358Z,11350
2018-12-09T10:27:20.318Z,12397
2018-12-09T10:27:50.423Z,13577
2018-12-09T10:28:20.348Z,14817
2018-12-09T10:28:50.438Z,16290
2018-12-09T10:29:20.498Z,17057
2018-12-09T10:29:50.560Z,15903
2018-12-09T10:30:20.536Z,14073
2018-12-09T10:30:50.566Z,12810
2018-12-09T10:31:20.537Z,12037
2018-12-09T10:31:50.613Z,11577
2018-12-09T10:32:20.596Z,11310
2018-12-09T10:32:50.727Z,11490
2018-12-09T10:33:20.661Z,11597
2018-12-09T10:33:50.705Z,11150
2018-12-09T10:34:20.734Z,10570
2018-12-09T10:34:50.771Z,10373
2018-12-09T10:35:20.845Z,10543
2018-12-09T10:35:50.833Z,10610
2018-12-09T10:36:20.841Z,10220
2018-12-09T10:36:50.901Z,9957
2018-12-09T10:37:20.932Z,11480
2018-12-09T10:37:51.015Z,13837
2018-12-09T10:38:21.012Z,16450
2018-12-09T10:38:51.021Z,17793
2018-12-09T10:39:21.070Z,17100
2018-12-09T10:39:51.245Z,16077
2018-12-09T10:40:21.169Z,16443
2018-12-09T10:40:51.207Z,17797
2018-12-09T10:41:21.177Z,17737
2018-12-09T10:41:51.248Z,16900
2018-12-09T10:42:21.250Z,16623
2018-12-09T10:42:51.476Z,17093
2018-12-09T10:43:21.323Z,17707
2018-12-09T10:43:51.389Z,18237
2018-12-09T10:44:21.374Z,18153
2018-12-09T10:44:51.430Z,18027
2018-12-09T10:45:21.508Z,17757
2018-12-09T10:45:51.497Z,16187
2018-12-09T10:46:21.836Z,15080
2018-12-09T10:46:51.550Z,14703
2018-12-09T10:47:21.581Z,14743
2018-12-09T10:47:51.609Z,14863
2018-12-09T10:48:21.594Z,14837
2018-12-09T10:48:51.664Z,15100
2018-12-09T10:49:21.691Z,15857
2018-12-09T10:49:51.736Z,16950
2018-12-09T10:50:21.794Z,17537
2018-12-09T10:50:51.753Z,17117
2018-12-09T10:51:21.860Z,16197
2018-12-09T10:51:51.869Z,15483
2018-12-09T10:52:21.923Z,15093
2018-12-09T10:52:51.924Z,15033
2018-12-09T10:53:21.916Z,14933
2018-12-09T10:53:51.986Z,14793
2018-12-09T10:54:21.985Z,14460
2018-12-09T10:54:52.046Z,13737
2018-12-09T10:55:22.036Z,12453
2018-12-09T10:55:52.102Z,11537
2018-12-09T10:56:22.069Z,11567
2018-12-09T10:56:52.182Z,11893
2018-12-09T10:57:22.128Z,11720
2018-12-09T10:57:52.179Z,10760
2018-12-09T10:58:22.260Z,9840
2018-12-09T10:58:52.379Z,9563
2018-12-09T10:59:22.305Z,9897
2018-12-09T10:59:52.357Z,10177
2018-12-09T11:00:22.420Z,10343
2018-12-09T11:00:52.405Z,10047
2018-12-09T11:01:22.448Z,9330
2018-12-09T11:01:52.491Z,8200
2018-12-09T11:02:22.462Z,7073
2018-12-09T11:02:52.545Z,6280
2018-12-09T11:03:22.952Z,6190
2018-12-09T11:03:52.571Z,6697
2018-12-09T11:04:22.644Z,7663
2018-12-09T11:04:52.635Z,8190
2018-12-09T11:05:22.706Z,8550
2018-12-09T11:05:52.764Z,8783
2018-12-09T11:06:22.732Z,9127
2018-12-09T11:06:52.773Z,9890
2018-12-09T11:07:22.760Z,11213
2018-12-09T11:07:52.845Z,12933
2018-12-09T11:08:22.848Z,13877
2018-12-09T11:08:52.873Z,13430
2018-12-09T11:09:22.891Z,12513
2018-12-09T11:09:52.963Z,12207
2018-12-09T11:10:23.012Z,12520
2018-12-09T11:10:53.027Z,13537
2018-12-09T11:11:23.002Z,14267
2018-12-09T11:11:53.106Z,13873
2018-12-09T11:12:23.057Z,13837
2018-12-09T11:12:53.158Z,15383
2018-12-09T11:13:23.118Z,17423
2018-12-09T11:13:57.953Z,18187
2018-12-09T11:14:23.184Z,17713
2018-12-09T11:14:53.270Z,17027
2018-12-09T11:15:23.296Z,17073
2018-12-09T11:15:53.299Z,17377
2018-12-09T11:16:23.347Z,16913
2018-12-09T11:16:53.752Z,15537
2018-12-09T11:17:23.431Z,14127
2018-12-09T11:17:53.417Z,13047
2018-12-09T11:18:23.458Z,12077
2018-12-09T11:18:53.515Z,11183
2018-12-09T11:19:23.539Z,11110
2018-12-09T11:19:53.596Z,11920
2018-12-09T11:20:23.633Z,13247
2018-12-09T11:20:53.649Z,14990
2018-12-09T11:21:30.473Z,15993
2018-12-09T11:21:53.752Z,16280
2018-12-09T11:22:23.731Z,16043
2018-12-09T11:22:53.811Z,15527
2018-12-09T11:23:23.813Z,15180
2018-12-09T11:23:53.828Z,15677
2018-12-09T11:24:23.850Z,16273
2018-12-09T11:24:53.906Z,16600
2018-12-09T11:25:23.967Z,16780
2018-12-09T11:25:53.946Z,16937
2018-12-09T11:26:23.984Z,16540
2018-12-09T11:26:54.314Z,16223
2018-12-09T11:27:24.117Z,17027
2018-12-09T11:27:54.081Z,16233
2018-12-09T11:28:24.114Z,15953
2018-12-09T11:28:54.147Z,16067
2018-12-09T11:29:24.157Z,16460
2018-12-09T11:29:54.157Z,16683
2018-12-09T11:30:24.220Z,16500
2018-12-09T11:30:54.271Z,16127
2018-12-09T11:31:24.267Z,15887
2018-12-09T11:31:54.331Z,15740
2018-12-09T11:32:24.371Z,15353
2018-12-09T11:32:54.388Z,15070
2018-12-09T11:33:24.394Z,14857
2018-12-09T11:33:54.470Z,14293
2018-12-09T11:34:24.465Z,13150
2018-12-09T11:34:54.534Z,11450
2018-12-09T11:35:24.545Z,10353
2018-12-09T11:35:54.572Z,9447
2018-12-09T11:36:24.581Z,10093
2018-12-09T11:36:54.631Z,11353
2018-12-09T11:37:24.637Z,13743
2018-12-09T11:37:54.649Z,16193
2018-12-09T11:38:24.703Z,15713
2018-12-09T11:38:54.755Z,14870
2018-12-09T11:39:24.759Z,13903
2018-12-09T11:39:54.837Z,13030
2018-12-09T11:40:24.875Z,12160
2018-12-09T11:40:54.872Z,10850
2018-12-09T11:41:24.877Z,9757
2018-12-09T11:41:55.012Z,9277
2018-12-09T11:42:24.973Z,8110
2018-12-09T11:42:54.979Z,8100
2018-12-09T11:43:25.024Z,10107
2018-12-09T11:43:55.059Z,12820
2018-12-09T11:44:25.066Z,11660
2018-12-09T11:44:55.121Z,9810
2018-12-09T11:45:25.198Z,10267
2018-12-09T11:45:55.185Z,12543
2018-12-09T11:46:25.182Z,15080
2018-12-09T11:46:55.240Z,15177
2018-12-09T11:47:25.250Z,15767
2018-12-09T11:47:55.261Z,17807
2018-12-09T11:48:25.318Z,17233
2018-12-09T11:48:55.358Z,15990
2018-12-09T11:49:25.389Z,13730
2018-12-09T11:49:55.403Z,12303
2018-12-09T11:50:25.436Z,12800
2018-12-09T11:50:55.469Z,13370
2018-12-09T11:51:25.510Z,11993
2018-12-09T11:51:55.511Z,10817
2018-12-09T11:52:25.546Z,11380
2018-12-09T11:52:55.577Z,11127
2018-12-09T11:53:25.584Z,11517
2018-12-09T11:53:55.645Z,10087
2018-12-09T11:54:25.683Z,9367
2018-12-09T11:54:55.707Z,11263
2018-12-09T11:55:25.744Z,12417
2018-12-09T11:55:55.774Z,12947
2018-12-09T11:56:25.798Z,10813
2018-12-09T11:56:55.881Z,9307
2018-12-09T11:57:25.826Z,9163
2018-12-09T11:57:55.876Z,9617
2018-12-09T11:58:25.899Z,9877
2018-12-09T11:58:55.936Z,10383
2018-12-09T11:59:25.956Z,10233
2018-12-09T11:59:56.007Z,8983
2018-12-09T12:00:26.077Z,9330
2018-12-09T12:00:56.072Z,9687
2018-12-09T12:01:26.083Z,9430
2018-12-09T12:01:56.132Z,9920
2018-12-09T12:02:26.201Z,10370
2018-12-09T12:02:56.179Z,11303
2018-12-09T12:03:26.255Z,10753
2018-12-09T12:03:56.284Z,9590
2018-12-09T12:04:26.300Z,10020
2018-12-09T12:04:56.308Z,10433
2018-12-09T12:05:26.399Z,10923
2018-12-09T12:05:56.421Z,11057
2018-12-09T12:06:26.469Z,9187
2018-12-09T12:06:56.475Z,8813
2018-12-09T12:07:26.511Z,9410
2018-12-09T12:07:56.490Z,11517
2018-12-09T12:08:26.593Z,14937
2018-12-09T12:08:56.598Z,15393
2018-12-09T12:09:26.614Z,14543
2018-12-09T12:09:56.675Z,13387
2018-12-09T12:10:26.732Z,12560
2018-12-09T12:10:56.676Z,12000
2018-12-09T12:11:26.727Z,12513
2018-12-09T12:11:56.829Z,12120
2018-12-09T12:12:26.790Z,11463
2018-12-09T12:12:56.843Z,10380
2018-12-09T12:13:26.861Z,10197
2018-12-09T12:13:56.958Z,10437
2018-12-09T12:14:26.909Z,10510
2018-12-09T12:14:56.964Z,9213
2018-12-09T12:15:27.037Z,7373
2018-12-09T12:15:57.050Z,6457
2018-12-09T12:16:27.029Z,5597
2018-12-09T12:16:57.079Z,4827
2018-12-09T12:17:27.100Z,4440
2018-12-09T12:17:57.133Z,3910
2018-12-09T12:18:27.168Z,3627
2018-12-09T12:18:57.187Z,3420
2018-12-09T12:19:27.228Z,3497
2018-12-09T12:19:57.230Z,3677
2018-12-09T12:20:27.415Z,3937
2018-12-09T12:20:57.293Z,3410
2018-12-09T12:21:27.340Z,2503
2018-12-09T12:21:57.511Z,2247
2018-12-09T12:22:27.363Z,2527
2018-12-09T12:22:57.492Z,3413
2018-12-09T12:23:27.478Z,3760
2018-12-09T12:23:57.563Z,3513
2018-12-09T12:24:27.498Z,3123
2018-12-09T12:24:57.733Z,2437
2018-12-09T12:25:27.665Z,2350
2018-12-09T12:25:57.599Z,2193
2018-12-09T12:26:27.708Z,2257
2018-12-09T12:26:57.713Z,2620
2018-12-09T12:27:27.720Z,2907
2018-12-09T12:27:57.722Z,2833
2018-12-09T12:28:27.775Z,2940
2018-12-09T12:28:57.782Z,3160
2018-12-09T12:29:27.860Z,2937
2018-12-09T12:29:58.234Z,2967
2018-12-09T12:30:27.896Z,3190
2018-12-09T12:30:57.970Z,3040
2018-12-09T12:31:28.004Z,2593
2018-12-09T12:31:58.021Z,2423
2018-12-09T12:32:28.030Z,2477
2018-12-09T12:32:58.648Z,2100
2018-12-09T12:33:28.098Z,1883
2018-12-09T12:33:58.420Z,2087
2018-12-09T12:34:28.159Z,2597
2018-12-09T12:34:58.843Z,3370
2018-12-09T12:35:28.215Z,4193
2018-12-09T12:35:58.272Z,5057
2018-12-09T12:36:28.303Z,5420
2018-12-09T12:36:58.319Z,6133
2018-12-09T12:37:28.365Z,7200
2018-12-09T12:37:58.353Z,7540
2018-12-09T12:38:28.366Z,7173
2018-12-09T12:38:58.458Z,6450
2018-12-09T12:39:28.469Z,6503
2018-12-09T12:39:58.496Z,7010
2018-12-09T12:40:28.475Z,7290
2018-12-09T12:40:58.557Z,7800
2018-12-09T12:41:28.577Z,8837
2018-12-09T12:41:58.656Z,9293
2018-12-09T12:42:28.619Z,9363
2018-12-09T12:42:58.696Z,8957
2018-12-09T12:43:28.681Z,9020
2018-12-09T12:43:58.780Z,9033
2018-12-09T12:44:28.728Z,8723
2018-12-09T12:44:58.809Z,8607
2018-12-09T12:45:28.787Z,8397
2018-12-09T12:45:58.880Z,8343
2018-12-09T12:46:28.851Z,8423
2018-12-09T12:46:58.909Z,8903
2018-12-09T12:47:28.938Z,9227
2018-12-09T12:47:58.978Z,9407
2018-12-09T12:48:28.963Z,9933
2018-12-09T12:48:59.054Z,10430
2018-12-09T12:49:29.034Z,10053
2018-12-09T12:49:59.074Z,9413
2018-12-09T12:50:29.173Z,9150
2018-12-09T12:50:59.351Z,8893
2018-12-09T12:51:29.196Z,8733
2018-12-09T12:51:59.216Z,8007
2018-12-09T12:52:29.256Z,7423
2018-12-09T12:52:59.297Z,7370
2018-12-09T12:53:29.349Z,7337
2018-12-09T12:53:59.363Z,7050
2018-12-09T12:54:29.393Z,6800
2018-12-09T12:54:59.413Z,6597
2018-12-09T12:55:29.455Z,6663
2018-12-09T12:55:59.497Z,7230
2018-12-09T12:56:29.483Z,8100
2018-12-09T12:56:59.554Z,8813
2018-12-09T12:57:29.569Z,9087
2018-12-09T12:57:59.572Z,8443
2018-12-09T12:58:29.640Z,7617
2018-12-09T12:58:59.624Z,6960
2018-12-09T12:59:29.692Z,6827
2018-12-09T12:59:59.721Z,7033
2018-12-09T13:00:29.750Z,7137
2018-12-09T13:00:59.809Z,7233
2018-12-09T13:01:29.870Z,7373
2018-12-09T13:01:59.934Z,7443
2018-12-09T13:02:29.869Z,7583
2018-12-09T13:02:59.892Z,7737
2018-12-09T13:03:29.894Z,7607
2018-12-09T13:04:00.001Z,7027
2018-12-09T13:04:29.975Z,6757
2018-12-09T13:05:00.030Z,6923
2018-12-09T13:05:30.025Z,6983
2018-12-09T13:06:00.189Z,6773
2018-12-09T13:06:30.147Z,6453
2018-12-09T13:07:00.184Z,6233
2018-12-09T13:07:30.153Z,6290
2018-12-09T13:08:00.199Z,6513
2018-12-09T13:08:30.237Z,6573
2018-12-09T13:09:01.037Z,6643
2018-12-09T13:09:30.346Z,6780
2018-12-09T13:10:00.663Z,7030
2018-12-09T13:10:30.381Z,7197
2018-12-09T13:11:00.676Z,7080
2018-12-09T13:11:30.418Z,7020
2018-12-09T13:12:01.045Z,6743
2018-12-09T13:12:30.564Z,6293
2018-12-09T13:13:00.946Z,5877
2018-12-09T13:13:30.526Z,5683
2018-12-09T13:14:00.966Z,5647
2018-12-09T13:14:30.654Z,5930
2018-12-09T13:15:01.292Z,6417
2018-12-09T13:15:30.639Z,7353
2018-12-09T13:16:00.729Z,8027
2018-12-09T13:16:30.729Z,7820
2018-12-09T13:17:00.763Z,7110
2018-12-09T13:17:30.809Z,6777
2018-12-09T13:18:30.871Z,6663
2018-12-09T13:19:00.864Z,6337
2018-12-09T13:19:30.869Z,6067
2018-12-09T13:20:01.306Z,6267
2018-12-09T13:20:30.958Z,7033
2018-12-09T13:21:01.038Z,7773
2018-12-09T13:21:31.025Z,7733
2018-12-09T13:22:01.084Z,6903
2018-12-09T13:22:31.063Z,6187
2018-12-09T13:23:01.272Z,5970
2018-12-09T13:23:31.205Z,5913
2018-12-09T13:24:01.739Z,6310
2018-12-09T13:24:31.264Z,6593
2018-12-09T13:25:01.230Z,6720
2018-12-09T13:25:31.323Z,6603
2018-12-09T13:26:01.394Z,6827
2018-12-09T13:26:31.314Z,7107
2018-12-09T13:27:01.381Z,6783
2018-12-09T13:27:31.404Z,5680
2018-12-09T13:28:01.427Z,4463
2018-12-09T13:28:31.482Z,3637
2018-12-09T13:29:01.511Z,3120
2018-12-09T13:29:31.542Z,2737
2018-12-09T13:30:01.560Z,2500
2018-12-09T13:30:31.573Z,2563
2018-12-09T13:31:01.643Z,2737
2018-12-09T13:31:31.651Z,3003
2018-12-09T13:32:01.653Z,2967
2018-12-09T13:32:31.708Z,2973
2018-12-09T13:33:01.789Z,3027
2018-12-09T13:33:31.749Z,2987
2018-12-09T13:34:01.822Z,2950
2018-12-09T13:34:31.798Z,3283
2018-12-09T13:35:01.873Z,3600
2018-12-09T13:35:31.864Z,3967
2018-12-09T13:36:01.977Z,4680
2018-12-09T13:36:31.924Z,5863
2018-12-09T13:37:02.049Z,7443
2018-12-09T13:37:31.981Z,8673
2018-12-09T13:38:02.042Z,9377
2018-12-09T13:38:32.042Z,9730
2018-12-09T13:39:02.108Z,9917